Temp: 3.1°C   Baro: 1026.5mb
  Wind: 0.0mph   Dir: ESE (123°)
  Rain: 0.0mm (0.0mm/hr)
  Solar: 63W/m2  Hum: 97%

Historic data

Bath Spa Weather Station Historical Data
Daily Summary for September 26, 2022 Units:  Both    English   Metric
Daily Weekly Monthly Yearly Custom
  High: Low: Average:
Temperature: 60.6 °F /  15.9 °C 51.3 °F /  10.7 °C 55.3 °F /  12.9 °C
Dew Point: 54.3 °F /  12.4 °C 44.1 °F /  6.7 °C 48.2 °F /  9 °C
Humidity: 94% 57.5% 78%
Wind Speed: 14.6mph /  23.5km/h - 6mph /  9.7km/h
Wind Gust: 27mph /  43.5km/h - -
Wind- - WNW
Pressure: 29.89 in /  1012.1 hPa 29.61 in /  1002.6 hPa -
Precipitation: 0.24 in /  6.1 mm    
Historical Graphs
 
 
Tabular Data for September 26, 2022
Time Temperature Dew Point Pressure Wind Wind Speed Wind Gust Humidity Rainfall Rate (Hourly) solar
00:09 54.3 °F /  12.4 °C 47.7 °F /  8.7 °C 29.89in /  1012.1hPa West 3.5mph /  5.6km/h 7mph /  11.3km/h 78% 0.00in /  0mm 0 W/m2
00:14 54.5 °F /  12.5 °C 47.8 °F /  8.8 °C 29.88in /  1011.7hPa West 4.1mph /  6.6km/h 10mph /  16.1km/h 78% 0.00in /  0mm 0 W/m2
00:19 54.8 °F /  12.7 °C 48.1 °F /  8.9 °C 29.88in /  1011.7hPa West 5.3mph /  8.5km/h 10mph /  16.1km/h 78% 0.00in /  0mm 0 W/m2
00:24 55 °F /  12.8 °C 48.4 °F /  9.1 °C 29.88in /  1011.7hPa West 5.8mph /  9.3km/h 13mph /  20.9km/h 78% 0.00in /  0mm 0 W/m2
00:29 55.2 °F /  12.9 °C 48.6 °F /  9.2 °C 29.87in /  1011.4hPa WSW 4.7mph /  7.6km/h 9mph /  14.5km/h 78% 0.00in /  0mm 0 W/m2
00:34 55.2 °F /  12.9 °C 48.6 °F /  9.2 °C 29.87in /  1011.4hPa West 4.5mph /  7.2km/h 9mph /  14.5km/h 78% 0.00in /  0mm 0 W/m2
00:39 55.4 °F /  13 °C 48.7 °F /  9.3 °C 29.87in /  1011.4hPa West 5.2mph /  8.4km/h 10mph /  16.1km/h 78% 0.00in /  0mm 0 W/m2
00:44 55.6 °F /  13.1 °C 48.9 °F /  9.4 °C 29.86in /  1011.1hPa West 4.8mph /  7.7km/h 7mph /  11.3km/h 78% 0.00in /  0mm 0 W/m2
00:49 55.6 °F /  13.1 °C 48.9 °F /  9.4 °C 29.86in /  1011.1hPa WNW 4.9mph /  7.9km/h 8mph /  12.9km/h 78% 0.00in /  0mm 0 W/m2
00:54 55.8 °F /  13.2 °C 48.9 °F /  9.4 °C 29.86in /  1011.1hPa West 4.6mph /  7.4km/h 9mph /  14.5km/h 78% 0.00in /  0mm 0 W/m2
00:59 55.8 °F /  13.2 °C 48.9 °F /  9.4 °C 29.85in /  1010.7hPa WNW 6.3mph /  10.1km/h 11mph /  17.7km/h 78% 0.00in /  0mm 0 W/m2
01:04 55.9 °F /  13.3 °C 49.1 °F /  9.5 °C 29.85in /  1010.7hPa West 3.8mph /  6.1km/h 10mph /  16.1km/h 78% 0.00in /  0mm 0 W/m2
01:09 55.9 °F /  13.3 °C 49.3 °F /  9.6 °C 29.85in /  1010.7hPa West 6.6mph /  10.6km/h 13mph /  20.9km/h 78.4% 0.00in /  0mm 0 W/m2
01:14 56.2 °F /  13.4 °C 49.7 °F /  9.8 °C 29.85in /  1010.7hPa West 5.5mph /  8.9km/h 10mph /  16.1km/h 79% 0.00in /  0mm 0 W/m2
01:19 56.4 °F /  13.6 °C 49.9 °F /  9.9 °C 29.84in /  1010.4hPa West 6.8mph /  10.9km/h 13mph /  20.9km/h 79% 0.00in /  0mm 0 W/m2
01:24 56.5 °F /  13.6 °C 50 °F /  10 °C 29.84in /  1010.4hPa West 5.7mph /  9.2km/h 13mph /  20.9km/h 79% 0.00in /  0mm 0 W/m2
01:29 56.4 °F /  13.6 °C 50.2 °F /  10.1 °C 29.83in /  1010hPa WSW 6.2mph /  10km/h 17mph /  27.4km/h 79.8% 0.00in /  0mm 0 W/m2
01:34 56.3 °F /  13.5 °C 50.3 °F /  10.2 °C 29.83in /  1010hPa West 4.2mph /  6.8km/h 12mph /  19.3km/h 80% 0.00in /  0mm 0 W/m2
01:39 56 °F /  13.3 °C 50.2 °F /  10.1 °C 29.83in /  1010hPa WSW 2.9mph /  4.7km/h 5mph /  8km/h 80.8% 0.00in /  0mm 0 W/m2
01:44 55.6 °F /  13.1 °C 50 °F /  10 °C 29.82in /  1009.7hPa WSW 3.2mph /  5.1km/h 6mph /  9.7km/h 81.6% 0.00in /  0mm 0 W/m2
01:49 54.9 °F /  12.7 °C 49.6 °F /  9.8 °C 29.81in /  1009.4hPa SW 2.6mph /  4.2km/h 5mph /  8km/h 82.4% 0.00in /  0mm 0 W/m2
01:54 54.3 °F /  12.4 °C 49.4 °F /  9.7 °C 29.81in /  1009.4hPa SSW 4mph /  6.4km/h 8mph /  12.9km/h 83.4% 0.02in /  0.51mm 0 W/m2
01:59 54 °F /  12.2 °C 49.5 °F /  9.7 °C 29.80in /  1009hPa SW 6.4mph /  10.3km/h 10mph /  16.1km/h 84.6% 0.02in /  0.51mm 0 W/m2
02:04 53.6 °F /  12 °C 49.4 °F /  9.7 °C 29.80in /  1009hPa SW 6mph /  9.7km/h 14mph /  22.5km/h 85.6% 0.02in /  0.51mm 0 W/m2
02:09 53.2 °F /  11.8 °C 49.4 °F /  9.7 °C 29.80in /  1009hPa SW 6.4mph /  10.3km/h 15mph /  24.1km/h 86.8% 0.03in /  0.76mm 0 W/m2
02:14 53 °F /  11.7 °C 49.4 °F /  9.7 °C 29.79in /  1008.7hPa SW 4.4mph /  7.1km/h 13mph /  20.9km/h 87.4% 0.03in /  0.76mm 0 W/m2
02:19 52.9 °F /  11.6 °C 49.5 °F /  9.7 °C 29.79in /  1008.7hPa SW 6.1mph /  9.8km/h 15mph /  24.1km/h 88% 0.03in /  0.76mm 0 W/m2
02:24 52.7 °F /  11.5 °C 49.4 °F /  9.7 °C 29.79in /  1008.7hPa SW 4.9mph /  7.9km/h 10mph /  16.1km/h 88.2% 0.03in /  0.76mm 0 W/m2
02:29 52.6 °F /  11.4 °C 49.5 °F /  9.7 °C 29.79in /  1008.7hPa SW 5.2mph /  8.4km/h 13mph /  20.9km/h 89% 0.03in /  0.76mm 0 W/m2
02:34 52.7 °F /  11.5 °C 49.5 °F /  9.7 °C 29.78in /  1008.4hPa WSW 5.6mph /  9km/h 13mph /  20.9km/h 89% 0.04in /  1.02mm 0 W/m2
02:39 52.7 °F /  11.5 °C 49.6 °F /  9.8 °C 29.78in /  1008.4hPa SW 5.5mph /  8.9km/h 12mph /  19.3km/h 89.4% 0.04in /  1.02mm 0 W/m2
02:44 52.7 °F /  11.5 °C 49.7 °F /  9.8 °C 29.78in /  1008.4hPa WSW 4.1mph /  6.6km/h 12mph /  19.3km/h 89.8% 0.04in /  1.02mm 0 W/m2
02:49 52.9 °F /  11.6 °C 50 °F /  10 °C 29.77in /  1008hPa WSW 4.5mph /  7.2km/h 8mph /  12.9km/h 90% 0.04in /  1.02mm 0 W/m2
02:54 53.1 °F /  11.7 °C 50.3 °F /  10.2 °C 29.77in /  1008hPa WSW 7.9mph /  12.7km/h 15mph /  24.1km/h 90.2% 0.04in /  1.02mm 0 W/m2
02:59 53.1 °F /  11.7 °C 50.5 °F /  10.3 °C 29.76in /  1007.7hPa WSW 5.2mph /  8.4km/h 9mph /  14.5km/h 91% 0.02in /  0.51mm 0 W/m2
03:04 52.9 °F /  11.6 °C 50.4 °F /  10.2 °C 29.76in /  1007.7hPa WSW 6.2mph /  10km/h 15mph /  24.1km/h 91% 0.02in /  0.51mm 0 W/m2
03:09 52.7 °F /  11.5 °C 50.2 °F /  10.1 °C 29.76in /  1007.7hPa SW 4.4mph /  7.1km/h 11mph /  17.7km/h 91% 0.02in /  0.51mm 0 W/m2
03:14 52.5 °F /  11.4 °C 50 °F /  10 °C 29.75in /  1007.3hPa WSW 5.4mph /  8.7km/h 11mph /  17.7km/h 91% 0.02in /  0.51mm 0 W/m2
03:19 52.6 °F /  11.4 °C 50.1 °F /  10.1 °C 29.75in /  1007.3hPa WSW 6mph /  9.7km/h 11mph /  17.7km/h 91% 0.02in /  0.51mm 0 W/m2
03:24 52.7 °F /  11.5 °C 50.4 °F /  10.2 °C 29.75in /  1007.3hPa WSW 4.8mph /  7.7km/h 11mph /  17.7km/h 91.8% 0.02in /  0.51mm 0 W/m2
03:29 52.9 °F /  11.6 °C 50.5 °F /  10.3 °C 29.75in /  1007.3hPa WSW 4.4mph /  7.1km/h 8mph /  12.9km/h 92% 0.02in /  0.51mm 0 W/m2
03:34 53.1 °F /  11.7 °C 50.7 °F /  10.4 °C 29.74in /  1007hPa WSW 4.8mph /  7.7km/h 11mph /  17.7km/h 92% 0.02in /  0.51mm 0 W/m2
03:39 53.1 °F /  11.7 °C 50.7 °F /  10.4 °C 29.74in /  1007hPa WSW 4.5mph /  7.2km/h 8mph /  12.9km/h 92% 0.03in /  0.76mm 0 W/m2
03:44 53.1 °F /  11.7 °C 50.7 °F /  10.4 °C 29.73in /  1006.7hPa SW 4.2mph /  6.8km/h 10mph /  16.1km/h 92% 0.05in /  1.27mm 0 W/m2
03:49 53.1 °F /  11.7 °C 50.7 °F /  10.4 °C 29.73in /  1006.7hPa WSW 4.4mph /  7.1km/h 7mph /  11.3km/h 92% 0.07in /  1.78mm 0 W/m2
03:54 53.1 °F /  11.7 °C 50.8 °F /  10.4 °C 29.73in /  1006.7hPa WSW 3.2mph /  5.1km/h 7mph /  11.3km/h 92% 0.09in /  2.29mm 0 W/m2
03:59 53.2 °F /  11.8 °C 50.9 °F /  10.5 °C 29.72in /  1006.3hPa WSW 4.3mph /  6.9km/h 7mph /  11.3km/h 92% 0.10in /  2.54mm 0 W/m2
04:04 53.3 °F /  11.8 °C 51 °F /  10.6 °C 29.72in /  1006.3hPa West 6.4mph /  10.3km/h 12mph /  19.3km/h 92.2% 0.12in /  3.05mm 0 W/m2
04:09 53.4 °F /  11.9 °C 51.4 °F /  10.8 °C 29.71in /  1006hPa WSW 4.3mph /  6.9km/h 10mph /  16.1km/h 93% 0.13in /  3.3mm 0 W/m2
04:14 53.6 °F /  12 °C 51.6 °F /  10.9 °C 29.70in /  1005.6hPa WSW 4.1mph /  6.6km/h 8mph /  12.9km/h 93% 0.13in /  3.3mm 0 W/m2
04:19 53.6 °F /  12 °C 51.6 °F /  10.9 °C 29.70in /  1005.6hPa West 4mph /  6.4km/h 8mph /  12.9km/h 93% 0.13in /  3.3mm 0 W/m2
04:24 53.6 °F /  12 °C 51.6 °F /  10.9 °C 29.70in /  1005.6hPa WSW 2.2mph /  3.5km/h 7mph /  11.3km/h 93% 0.13in /  3.3mm 0 W/m2
04:29 53.6 °F /  12 °C 51.6 °F /  10.9 °C 29.69in /  1005.3hPa SW 5.6mph /  9km/h 12mph /  19.3km/h 93% 0.13in /  3.3mm 0 W/m2
04:34 53.8 °F /  12.1 °C 51.8 °F /  11 °C 29.68in /  1005hPa WSW 6.6mph /  10.6km/h 12mph /  19.3km/h 93% 0.13in /  3.3mm 0 W/m2
04:39 53.8 °F /  12.1 °C 51.8 °F /  11 °C 29.68in /  1005hPa WSW 6.4mph /  10.3km/h 11mph /  17.7km/h 93% 0.13in /  3.3mm 0 W/m2
04:44 53.8 °F /  12.1 °C 51.8 °F /  11 °C 29.68in /  1005hPa WSW 5.4mph /  8.7km/h 9mph /  14.5km/h 93% 0.12in /  3.05mm 0 W/m2
04:49 54 °F /  12.2 °C 52 °F /  11.1 °C 29.67in /  1004.6hPa West 4.4mph /  7.1km/h 10mph /  16.1km/h 93% 0.10in /  2.54mm 0 W/m2
04:54 54.1 °F /  12.3 °C 52.1 °F /  11.2 °C 29.67in /  1004.6hPa West 5.9mph /  9.5km/h 10mph /  16.1km/h 93% 0.08in /  2.03mm 0 W/m2
04:59 54.1 °F /  12.3 °C 52.2 °F /  11.2 °C 29.67in /  1004.6hPa West 6.4mph /  10.3km/h 12mph /  19.3km/h 93% 0.06in /  1.52mm 0 W/m2
05:04 54.3 °F /  12.4 °C 52.3 °F /  11.3 °C 29.67in /  1004.6hPa West 5mph /  8km/h 11mph /  17.7km/h 93% 0.03in /  0.76mm 0 W/m2
05:09 54.3 °F /  12.4 °C 52.3 °F /  11.3 °C 29.67in /  1004.6hPa WSW 4.8mph /  7.7km/h 9mph /  14.5km/h 93% 0.02in /  0.51mm 0 W/m2
05:14 54.5 °F /  12.5 °C 52.5 °F /  11.4 °C 29.66in /  1004.3hPa WSW 5mph /  8km/h 10mph /  16.1km/h 93% 0.02in /  0.51mm 0 W/m2
05:18 54.5 °F /  12.5 °C 52.9 °F /  11.6 °C 29.66in /  1004.3hPa WSW 5mph /  8km/h 9mph /  14.5km/h 94% 0.02in /  0.51mm 0 W/m2
05:24 54.6 °F /  12.6 °C 53 °F /  11.7 °C 29.65in /  1003.9hPa WSW 3.7mph /  6km/h 7mph /  11.3km/h 94% 0.02in /  0.51mm 0 W/m2
05:29 54.5 °F /  12.5 °C 52.9 °F /  11.6 °C 29.65in /  1003.9hPa WSW 3.9mph /  6.3km/h 8mph /  12.9km/h 94% 0.02in /  0.51mm 0 W/m2
05:34 54.7 °F /  12.6 °C 53.1 °F /  11.7 °C 29.65in /  1003.9hPa West 3.2mph /  5.1km/h 7mph /  11.3km/h 94% 0.02in /  0.51mm 0 W/m2
05:39 54.8 °F /  12.7 °C 53.1 °F /  11.7 °C 29.64in /  1003.6hPa West 3.2mph /  5.1km/h 8mph /  12.9km/h 94% 0.02in /  0.51mm 0 W/m2
05:44 54.9 °F /  12.7 °C 53.2 °F /  11.8 °C 29.64in /  1003.6hPa West 2.5mph /  4km/h 7mph /  11.3km/h 94% 0.02in /  0.51mm 0 W/m2
05:49 54.9 °F /  12.7 °C 53.2 °F /  11.8 °C 29.63in /  1003.3hPa WSW 3.1mph /  5km/h 7mph /  11.3km/h 94% 0.02in /  0.51mm 0 W/m2
05:54 55 °F /  12.8 °C 53.4 °F /  11.9 °C 29.62in /  1002.9hPa SW 2.4mph /  3.9km/h 7mph /  11.3km/h 94% 0.02in /  0.51mm 0 W/m2
05:59 55.2 °F /  12.9 °C 53.6 °F /  12 °C 29.62in /  1002.9hPa West 3.3mph /  5.3km/h 8mph /  12.9km/h 94% 0.02in /  0.51mm 0 W/m2
06:04 55.5 °F /  13.1 °C 53.9 °F /  12.2 °C 29.62in /  1002.9hPa West 4.4mph /  7.1km/h 7mph /  11.3km/h 94% 0.02in /  0.51mm 0 W/m2
06:09 55.7 °F /  13.2 °C 54 °F /  12.2 °C 29.62in /  1002.9hPa West 4.8mph /  7.7km/h 8mph /  12.9km/h 94% 0.01in /  0.25mm 0 W/m2
06:14 55.9 °F /  13.3 °C 54.2 °F /  12.3 °C 29.62in /  1002.9hPa WNW 5.2mph /  8.4km/h 10mph /  16.1km/h 94% 0.01in /  0.25mm 0 W/m2
06:19 55.9 °F /  13.3 °C 54.3 °F /  12.4 °C 29.62in /  1002.9hPa West 6.3mph /  10.1km/h 10mph /  16.1km/h 94% 0.01in /  0.25mm 0 W/m2
06:24 55.9 °F /  13.3 °C 54.3 °F /  12.4 °C 29.62in /  1002.9hPa West 4.8mph /  7.7km/h 10mph /  16.1km/h 94% 0.01in /  0.25mm 0 W/m2
06:29 55.9 °F /  13.3 °C 54.3 °F /  12.4 °C 29.62in /  1002.9hPa WNW 4.5mph /  7.2km/h 10mph /  16.1km/h 94% 0.01in /  0.25mm 0 W/m2
06:34 55.8 °F /  13.2 °C 54.2 °F /  12.3 °C 29.62in /  1002.9hPa WNW 6.7mph /  10.8km/h 10mph /  16.1km/h 94% 0.00in /  0mm 0 W/m2
06:39 55.8 °F /  13.2 °C 53.9 °F /  12.2 °C 29.62in /  1002.9hPa WNW 5.1mph /  8.2km/h 11mph /  17.7km/h 93.2% 0.00in /  0mm 0 W/m2
06:44 55.8 °F /  13.2 °C 53.8 °F /  12.1 °C 29.62in /  1002.9hPa WNW 6mph /  9.7km/h 14mph /  22.5km/h 93% 0.00in /  0mm 0 W/m2
06:49 55.6 °F /  13.1 °C 53.6 °F /  12 °C 29.62in /  1002.9hPa WNW 4.9mph /  7.9km/h 11mph /  17.7km/h 93% 0.00in /  0mm 0 W/m2
06:54 55.4 °F /  13 °C 53.3 °F /  11.8 °C 29.63in /  1003.3hPa NW 6mph /  9.7km/h 10mph /  16.1km/h 92.8% 0.00in /  0mm 0 W/m2
06:59 55.1 °F /  12.8 °C 52.8 °F /  11.6 °C 29.63in /  1003.3hPa WNW 5.1mph /  8.2km/h 11mph /  17.7km/h 92% 0.00in /  0mm 0 W/m2
07:04 55 °F /  12.8 °C 52.5 °F /  11.4 °C 29.63in /  1003.3hPa NW 5.5mph /  8.9km/h 17mph /  27.4km/h 91.2% 0.00in /  0mm 0 W/m2
07:09 54.9 °F /  12.7 °C 52 °F /  11.1 °C 29.63in /  1003.3hPa NW 5.3mph /  8.5km/h 14mph /  22.5km/h 90.2% 0.00in /  0mm 0 W/m2
07:14 54.7 °F /  12.6 °C 51.4 °F /  10.8 °C 29.62in /  1002.9hPa WNW 4.1mph /  6.6km/h 8mph /  12.9km/h 88.6% 0.00in /  0mm 5 W/m2
07:19 54.6 °F /  12.6 °C 51.1 °F /  10.6 °C 29.62in /  1002.9hPa WNW 4.1mph /  6.6km/h 10mph /  16.1km/h 87.6% 0.00in /  0mm 11 W/m2
07:24 54.5 °F /  12.5 °C 50.6 °F /  10.3 °C 29.62in /  1002.9hPa WNW 3.9mph /  6.3km/h 7mph /  11.3km/h 86.5% 0.00in /  0mm 14 W/m2
07:29 54.5 °F /  12.5 °C 50.2 °F /  10.1 °C 29.61in /  1002.6hPa West 4.7mph /  7.6km/h 12mph /  19.3km/h 85.4% 0.00in /  0mm 16 W/m2
07:34 54.6 °F /  12.6 °C 50 °F /  10 °C 29.62in /  1002.9hPa WNW 3.2mph /  5.1km/h 8mph /  12.9km/h 84.6% 0.00in /  0mm 14 W/m2
07:39 54.5 °F /  12.5 °C 49.8 °F /  9.9 °C 29.62in /  1002.9hPa WNW 3.5mph /  5.6km/h 8mph /  12.9km/h 84% 0.00in /  0mm 21 W/m2
07:44 54.7 °F /  12.6 °C 49.6 °F /  9.8 °C 29.62in /  1002.9hPa WNW 5.8mph /  9.3km/h 11mph /  17.7km/h 83.2% 0.00in /  0mm 25 W/m2
07:49 54.8 °F /  12.7 °C 49.4 °F /  9.7 °C 29.62in /  1002.9hPa West 4.8mph /  7.7km/h 9mph /  14.5km/h 82% 0.00in /  0mm 40 W/m2
07:54 54.9 °F /  12.7 °C 49.1 °F /  9.5 °C 29.62in /  1002.9hPa West 5.2mph /  8.4km/h 13mph /  20.9km/h 81% 0.00in /  0mm 60 W/m2
07:59 55 °F /  12.8 °C 49 °F /  9.4 °C 29.62in /  1002.9hPa WNW 6mph /  9.7km/h 11mph /  17.7km/h 80.4% 0.00in /  0mm 46 W/m2
08:04 54.9 °F /  12.7 °C 48.7 °F /  9.3 °C 29.62in /  1002.9hPa WNW 5.2mph /  8.4km/h 11mph /  17.7km/h 80% 0.00in /  0mm 37 W/m2
08:09 54.7 °F /  12.6 °C 48.6 °F /  9.2 °C 29.61in /  1002.6hPa WNW 5.4mph /  8.7km/h 12mph /  19.3km/h 80% 0.00in /  0mm 47 W/m2
08:14 54.8 °F /  12.7 °C 48.6 °F /  9.2 °C 29.61in /  1002.6hPa WNW 7.6mph /  12.2km/h 13mph /  20.9km/h 80% 0.00in /  0mm 63 W/m2
08:18 54.9 °F /  12.7 °C 48.7 °F /  9.3 °C 29.62in /  1002.9hPa WNW 6.8mph /  10.9km/h 11mph /  17.7km/h 80% 0.00in /  0mm 74 W/m2
08:24 55 °F /  12.8 °C 48.6 °F /  9.2 °C 29.62in /  1002.9hPa West 5.6mph /  9km/h 12mph /  19.3km/h 79% 0.00in /  0mm 76 W/m2
08:29 55 °F /  12.8 °C 48.6 °F /  9.2 °C 29.62in /  1002.9hPa West 6.4mph /  10.3km/h 12mph /  19.3km/h 79% 0.00in /  0mm 90 W/m2
08:34 55 °F /  12.8 °C 48.6 °F /  9.2 °C 29.62in /  1002.9hPa WNW 5.2mph /  8.4km/h 13mph /  20.9km/h 79% 0.00in /  0mm 123 W/m2
08:39 55.1 °F /  12.8 °C 48.7 °F /  9.3 °C 29.62in /  1002.9hPa WNW 5.5mph /  8.9km/h 13mph /  20.9km/h 79% 0.00in /  0mm 146 W/m2
08:44 55.3 °F /  12.9 °C 48.7 °F /  9.3 °C 29.62in /  1002.9hPa WNW 5.2mph /  8.4km/h 10mph /  16.1km/h 78.2% 0.00in /  0mm 193 W/m2
08:49 55.6 °F /  13.1 °C 48.9 °F /  9.4 °C 29.62in /  1002.9hPa WNW 4mph /  6.4km/h 9mph /  14.5km/h 78% 0.00in /  0mm 216 W/m2
08:54 55.8 °F /  13.2 °C 48.9 °F /  9.4 °C 29.63in /  1003.3hPa WNW 6.3mph /  10.1km/h 9mph /  14.5km/h 78% 0.00in /  0mm 204 W/m2
08:59 55.7 °F /  13.2 °C 48.6 °F /  9.2 °C 29.62in /  1002.9hPa NW 7.5mph /  12.1km/h 14mph /  22.5km/h 77% 0.00in /  0mm 98 W/m2
09:04 55.4 °F /  13 °C 48.4 °F /  9.1 °C 29.62in /  1002.9hPa WNW 7.4mph /  11.9km/h 14mph /  22.5km/h 77% 0.00in /  0mm 100 W/m2
09:09 55.2 °F /  12.9 °C 48.2 °F /  9 °C 29.62in /  1002.9hPa NW 6mph /  9.7km/h 12mph /  19.3km/h 77% 0.00in /  0mm 130 W/m2
09:14 55.3 °F /  12.9 °C 48.3 °F /  9.1 °C 29.63in /  1003.3hPa WNW 6.1mph /  9.8km/h 11mph /  17.7km/h 77% 0.00in /  0mm 137 W/m2
09:19 55.5 °F /  13.1 °C 48.5 °F /  9.2 °C 29.63in /  1003.3hPa WNW 4.8mph /  7.7km/h 9mph /  14.5km/h 77% 0.00in /  0mm 118 W/m2
09:24 55.5 °F /  13.1 °C 48.5 °F /  9.2 °C 29.63in /  1003.3hPa NW 7mph /  11.3km/h 14mph /  22.5km/h 77% 0.00in /  0mm 121 W/m2
09:29 55.5 °F /  13.1 °C 48.2 °F /  9 °C 29.63in /  1003.3hPa NNW 6.3mph /  10.1km/h 15mph /  24.1km/h 76.4% 0.00in /  0mm 142 W/m2
09:34 55.5 °F /  13.1 °C 48.1 °F /  8.9 °C 29.63in /  1003.3hPa NW 5.1mph /  8.2km/h 12mph /  19.3km/h 76% 0.00in /  0mm 144 W/m2
09:39 55.5 °F /  13.1 °C 48.1 °F /  8.9 °C 29.63in /  1003.3hPa NW 6.4mph /  10.3km/h 15mph /  24.1km/h 76% 0.00in /  0mm 135 W/m2
09:44 55.4 °F /  13 °C 48 °F /  8.9 °C 29.64in /  1003.6hPa WNW 5mph /  8km/h 15mph /  24.1km/h 76% 0.00in /  0mm 125 W/m2
09:49 55.4 °F /  13 °C 48 °F /  8.9 °C 29.64in /  1003.6hPa NW 5.8mph /  9.3km/h 12mph /  19.3km/h 76% 0.00in /  0mm 155 W/m2
09:54 55.4 °F /  13 °C 48 °F /  8.9 °C 29.64in /  1003.6hPa WNW 4.9mph /  7.9km/h 9mph /  14.5km/h 76% 0.00in /  0mm 190 W/m2
09:59 55.6 °F /  13.1 °C 48.2 °F /  9 °C 29.64in /  1003.6hPa WNW 6.6mph /  10.6km/h 11mph /  17.7km/h 76% 0.00in /  0mm 188 W/m2
10:04 55.6 °F /  13.1 °C 48.1 °F /  8.9 °C 29.65in /  1003.9hPa WNW 6.4mph /  10.3km/h 12mph /  19.3km/h 75.8% 0.00in /  0mm 193 W/m2
10:09 55.6 °F /  13.1 °C 47.8 °F /  8.8 °C 29.65in /  1003.9hPa NW 6.3mph /  10.1km/h 15mph /  24.1km/h 75% 0.00in /  0mm 221 W/m2
10:14 55.8 °F /  13.2 °C 47.9 °F /  8.8 °C 29.65in /  1003.9hPa NW 8.6mph /  13.8km/h 19mph /  30.6km/h 74.6% 0.00in /  0mm 383 W/m2
10:19 55.9 °F /  13.3 °C 47.6 °F /  8.7 °C 29.65in /  1003.9hPa NW 10.4mph /  16.7km/h 19mph /  30.6km/h 73.2% 0.00in /  0mm 265 W/m2
10:24 56 °F /  13.3 °C 47.2 °F /  8.4 °C 29.65in /  1003.9hPa WNW 6.7mph /  10.8km/h 16mph /  25.7km/h 72% 0.00in /  0mm 338 W/m2
10:29 56.3 °F /  13.5 °C 47.4 °F /  8.6 °C 29.65in /  1003.9hPa WNW 10.2mph /  16.4km/h 21mph /  33.8km/h 72% 0.00in /  0mm 550 W/m2
10:34 56.5 °F /  13.6 °C 47.3 °F /  8.5 °C 29.65in /  1003.9hPa NW 8.6mph /  13.8km/h 20mph /  32.2km/h 71.6% 0.00in /  0mm 234 W/m2
10:39 56.3 °F /  13.5 °C 47.4 °F /  8.6 °C 29.65in /  1003.9hPa WNW 9mph /  14.5km/h 15mph /  24.1km/h 72% 0.00in /  0mm 181 W/m2
10:44 56.1 °F /  13.4 °C 47.3 °F /  8.5 °C 29.65in /  1003.9hPa NW 10.2mph /  16.4km/h 16mph /  25.7km/h 72% 0.00in /  0mm 315 W/m2
10:49 56.3 °F /  13.5 °C 47.4 °F /  8.6 °C 29.65in /  1003.9hPa WNW 9mph /  14.5km/h 18mph /  29km/h 72% 0.00in /  0mm 503 W/m2
10:54 56.8 °F /  13.8 °C 47.6 °F /  8.7 °C 29.65in /  1003.9hPa NW 11.8mph /  19km/h 19mph /  30.6km/h 71.6% 0.00in /  0mm 469 W/m2
10:59 57 °F /  13.9 °C 47.3 °F /  8.5 °C 29.65in /  1003.9hPa WNW 10mph /  16.1km/h 20mph /  32.2km/h 70.2% 0.00in /  0mm 559 W/m2
11:04 57.4 °F /  14.1 °C 47.7 °F /  8.7 °C 29.65in /  1003.9hPa WNW 7mph /  11.3km/h 22mph /  35.4km/h 70% 0.00in /  0mm 559 W/m2
11:09 57.4 °F /  14.1 °C 47.6 °F /  8.7 °C 29.65in /  1003.9hPa WNW 8.5mph /  13.7km/h 22mph /  35.4km/h 69.8% 0.00in /  0mm 599 W/m2
11:13 57.7 °F /  14.3 °C 47.8 °F /  8.8 °C 29.65in /  1003.9hPa NW 6.8mph /  10.9km/h 15mph /  24.1km/h 69.8% 0.00in /  0mm 272 W/m2
11:19 57.7 °F /  14.3 °C 47.7 °F /  8.7 °C 29.65in /  1003.9hPa NW 7.6mph /  12.2km/h 15mph /  24.1km/h 69% 0.00in /  0mm 230 W/m2
11:24 57.7 °F /  14.3 °C 47.5 °F /  8.6 °C 29.65in /  1003.9hPa NW 8.4mph /  13.5km/h 19mph /  30.6km/h 68.4% 0.00in /  0mm 230 W/m2
11:29 57.5 °F /  14.2 °C 47.3 °F /  8.5 °C 29.65in /  1003.9hPa NW 6.7mph /  10.8km/h 13mph /  20.9km/h 68.6% 0.00in /  0mm 295 W/m2
11:34 57.4 °F /  14.1 °C 47.1 °F /  8.4 °C 29.65in /  1003.9hPa NNW 6.4mph /  10.3km/h 13mph /  20.9km/h 68.4% 0.00in /  0mm 220 W/m2
11:39 57.4 °F /  14.1 °C 47 °F /  8.3 °C 29.65in /  1003.9hPa WNW 8.4mph /  13.5km/h 20mph /  32.2km/h 68.2% 0.00in /  0mm 323 W/m2
11:44 57.5 °F /  14.2 °C 46.8 °F /  8.2 °C 29.64in /  1003.6hPa WNW 9.8mph /  15.8km/h 19mph /  30.6km/h 67.4% 0.00in /  0mm 241 W/m2
11:49 57.6 °F /  14.2 °C 46.8 °F /  8.2 °C 29.64in /  1003.6hPa WNW 9.4mph /  15.1km/h 19mph /  30.6km/h 67% 0.00in /  0mm 271 W/m2
11:54 57.8 °F /  14.3 °C 46.9 °F /  8.3 °C 29.64in /  1003.6hPa NW 7.9mph /  12.7km/h 17mph /  27.4km/h 67% 0.00in /  0mm 269 W/m2
11:59 57.8 °F /  14.3 °C 47.1 °F /  8.4 °C 29.65in /  1003.9hPa NW 11mph /  17.7km/h 18mph /  29km/h 67.6% 0.00in /  0mm 172 W/m2
12:04 57.3 °F /  14.1 °C 47.1 °F /  8.4 °C 29.65in /  1003.9hPa WNW 7mph /  11.3km/h 17mph /  27.4km/h 68.8% 0.00in /  0mm 181 W/m2
12:09 57.3 °F /  14.1 °C 47.4 °F /  8.6 °C 29.65in /  1003.9hPa NW 6mph /  9.7km/h 14mph /  22.5km/h 69.4% 0.00in /  0mm 181 W/m2
12:14 57.4 °F /  14.1 °C 47.3 °F /  8.5 °C 29.65in /  1003.9hPa WNW 4.1mph /  6.6km/h 14mph /  22.5km/h 69% 0.00in /  0mm 213 W/m2
12:19 57.6 °F /  14.2 °C 47.5 °F /  8.6 °C 29.65in /  1003.9hPa NW 6.2mph /  10km/h 13mph /  20.9km/h 69% 0.00in /  0mm 176 W/m2
12:24 57.6 °F /  14.2 °C 47.3 °F /  8.5 °C 29.65in /  1003.9hPa NW 9.8mph /  15.8km/h 17mph /  27.4km/h 68.5% 0.00in /  0mm 151 W/m2
12:29 57.3 °F /  14.1 °C 46.8 °F /  8.2 °C 29.65in /  1003.9hPa WNW 9mph /  14.5km/h 17mph /  27.4km/h 68% 0.00in /  0mm 287 W/m2
12:34 57.4 °F /  14.1 °C 47 °F /  8.3 °C 29.65in /  1003.9hPa NW 9.7mph /  15.6km/h 17mph /  27.4km/h 68% 0.00in /  0mm 411 W/m2
12:39 57.8 °F /  14.3 °C 46.9 °F /  8.3 °C 29.65in /  1003.9hPa NW 8.2mph /  13.2km/h 19mph /  30.6km/h 67% 0.00in /  0mm 302 W/m2
12:44 57.8 °F /  14.3 °C 46.8 °F /  8.2 °C 29.65in /  1003.9hPa WNW 10.5mph /  16.9km/h 18mph /  29km/h 66.6% 0.00in /  0mm 176 W/m2
12:49 57.3 °F /  14.1 °C 47 °F /  8.3 °C 29.65in /  1003.9hPa NNW 11.8mph /  19km/h 23mph /  37km/h 68.2% 0.00in /  0mm 186 W/m2
12:54 56.5 °F /  13.6 °C 47.3 °F /  8.5 °C 29.66in /  1004.3hPa NNW 9.2mph /  14.8km/h 18mph /  29km/h 71.6% 0.00in /  0mm 227 W/m2
12:59 56.1 °F /  13.4 °C 47.8 °F /  8.8 °C 29.66in /  1004.3hPa NW 7.4mph /  11.9km/h 17mph /  27.4km/h 73.2% 0.00in /  0mm 265 W/m2
13:04 56.5 °F /  13.6 °C 48.2 °F /  9 °C 29.66in /  1004.3hPa WNW 8.5mph /  13.7km/h 17mph /  27.4km/h 73.8% 0.00in /  0mm 288 W/m2
13:09 57 °F /  13.9 °C 47.4 °F /  8.6 °C 29.66in /  1004.3hPa NW 11mph /  17.7km/h 25mph /  40.2km/h 70.4% 0.00in /  0mm 696 W/m2
13:14 57.5 °F /  14.2 °C 47.1 °F /  8.4 °C 29.66in /  1004.3hPa NW 12.3mph /  19.8km/h 23mph /  37km/h 68.2% 0.00in /  0mm 766 W/m2
13:19 58.1 °F /  14.5 °C 47.2 °F /  8.4 °C 29.66in /  1004.3hPa NW 8.2mph /  13.2km/h 23mph /  37km/h 67.2% 0.00in /  0mm 563 W/m2
13:24 58.2 °F /  14.6 °C 46.8 °F /  8.2 °C 29.66in /  1004.3hPa NW 11.3mph /  18.2km/h 22mph /  35.4km/h 65.8% 0.00in /  0mm 642 W/m2
13:29 58.1 °F /  14.5 °C 46.5 °F /  8.1 °C 29.66in /  1004.3hPa North 9.6mph /  15.4km/h 21mph /  33.8km/h 65.2% 0.00in /  0mm 693 W/m2
13:34 58.5 °F /  14.7 °C 46.4 °F /  8 °C 29.66in /  1004.3hPa WNW 12.8mph /  20.6km/h 25mph /  40.2km/h 64.2% 0.00in /  0mm 605 W/m2
13:39 58.8 °F /  14.9 °C 46.7 °F /  8.2 °C 29.66in /  1004.3hPa NNW 7.8mph /  12.6km/h 18mph /  29km/h 64% 0.00in /  0mm 737 W/m2
13:44 59.4 °F /  15.2 °C 46.4 °F /  8 °C 29.66in /  1004.3hPa NW 14.6mph /  23.5km/h 27mph /  43.5km/h 62% 0.00in /  0mm 782 W/m2
13:49 59.4 °F /  15.2 °C 46.1 °F /  7.8 °C 29.66in /  1004.3hPa WNW 11.3mph /  18.2km/h 19mph /  30.6km/h 61.4% 0.00in /  0mm 745 W/m2
13:54 60 °F /  15.6 °C 45.8 °F /  7.7 °C 29.66in /  1004.3hPa NNW 10.6mph /  17.1km/h 19mph /  30.6km/h 59.4% 0.00in /  0mm 679 W/m2
13:59 60.5 °F /  15.8 °C 45.9 °F /  7.7 °C 29.66in /  1004.3hPa NW 10mph /  16.1km/h 20mph /  32.2km/h 58.4% 0.00in /  0mm 830 W/m2
14:04 60.6 °F /  15.9 °C 45.5 °F /  7.5 °C 29.66in /  1004.3hPa NNW 12.4mph /  20km/h 19mph /  30.6km/h 57.6% 0.00in /  0mm 830 W/m2
14:08 59.9 °F /  15.5 °C 44.9 °F /  7.2 °C 29.66in /  1004.3hPa NW 11.8mph /  19km/h 19mph /  30.6km/h 57.5% 0.00in /  0mm 424 W/m2
14:14 58.9 °F /  14.9 °C 44.5 °F /  6.9 °C 29.66in /  1004.3hPa NNW 11.6mph /  18.7km/h 24mph /  38.6km/h 58.6% 0.00in /  0mm 288 W/m2
14:19 58.6 °F /  14.8 °C 44.8 °F /  7.1 °C 29.66in /  1004.3hPa NW 7.8mph /  12.6km/h 18mph /  29km/h 60% 0.00in /  0mm 248 W/m2
14:24 58.6 °F /  14.8 °C 44.7 °F /  7.1 °C 29.66in /  1004.3hPa NNW 7.4mph /  11.9km/h 14mph /  22.5km/h 59.8% 0.00in /  0mm 169 W/m2
14:29 58.6 °F /  14.8 °C 44.8 °F /  7.1 °C 29.67in /  1004.6hPa NW 4.8mph /  7.7km/h 12mph /  19.3km/h 60% 0.00in /  0mm 141 W/m2
14:34 58.4 °F /  14.7 °C 44.5 °F /  6.9 °C 29.66in /  1004.3hPa NNW 6.9mph /  11.1km/h 18mph /  29km/h 60% 0.00in /  0mm 172 W/m2
14:39 58.5 °F /  14.7 °C 45 °F /  7.2 °C 29.67in /  1004.6hPa NW 6.3mph /  10.1km/h 12mph /  19.3km/h 60.8% 0.00in /  0mm 227 W/m2
14:44 58.5 °F /  14.7 °C 45 °F /  7.2 °C 29.67in /  1004.6hPa NW 4.9mph /  7.9km/h 12mph /  19.3km/h 60.8% 0.00in /  0mm 227 W/m2
14:49 58.7 °F /  14.8 °C 45.3 °F /  7.4 °C 29.67in /  1004.6hPa NW 9mph /  14.5km/h 21mph /  33.8km/h 61% 0.00in /  0mm 251 W/m2
14:54 58.8 °F /  14.9 °C 44.9 °F /  7.2 °C 29.67in /  1004.6hPa WNW 8.6mph /  13.8km/h 21mph /  33.8km/h 59.8% 0.00in /  0mm 260 W/m2
14:59 58.8 °F /  14.9 °C 44.9 °F /  7.2 °C 29.67in /  1004.6hPa NW 10.2mph /  16.4km/h 20mph /  32.2km/h 59.8% 0.00in /  0mm 221 W/m2
15:04 58.6 °F /  14.8 °C 44.4 °F /  6.9 °C 29.67in /  1004.6hPa NW 11.2mph /  18km/h 21mph /  33.8km/h 59% 0.00in /  0mm 179 W/m2
15:09 58.6 °F /  14.8 °C 44.7 °F /  7.1 °C 29.67in /  1004.6hPa NW 8.4mph /  13.5km/h 18mph /  29km/h 59.6% 0.00in /  0mm 236 W/m2
15:13 58.8 °F /  14.9 °C 45 °F /  7.2 °C 29.67in /  1004.6hPa NW 8mph /  12.9km/h 16mph /  25.7km/h 60% 0.00in /  0mm 329 W/m2
15:19 59.3 °F /  15.2 °C 45 °F /  7.2 °C 29.67in /  1004.6hPa NW 9mph /  14.5km/h 15mph /  24.1km/h 59.2% 0.00in /  0mm 397 W/m2
15:24 59.4 °F /  15.2 °C 44.7 °F /  7.1 °C 29.67in /  1004.6hPa WNW 9.5mph /  15.3km/h 19mph /  30.6km/h 58.2% 0.00in /  0mm 199 W/m2
15:29 59.3 °F /  15.2 °C 44.9 °F /  7.2 °C 29.67in /  1004.6hPa WNW 5.5mph /  8.9km/h 19mph /  30.6km/h 59% 0.00in /  0mm 146 W/m2
15:34 59.2 °F /  15.1 °C 44.5 °F /  6.9 °C 29.67in /  1004.6hPa NNW 7.6mph /  12.2km/h 13mph /  20.9km/h 58.2% 0.00in /  0mm 236 W/m2
15:39 59.3 °F /  15.2 °C 44.5 °F /  6.9 °C 29.67in /  1004.6hPa NW 7.4mph /  11.9km/h 16mph /  25.7km/h 58% 0.00in /  0mm 162 W/m2
15:44 59.2 °F /  15.1 °C 44.3 °F /  6.8 °C 29.67in /  1004.6hPa NW 6.8mph /  10.9km/h 16mph /  25.7km/h 57.8% 0.00in /  0mm 116 W/m2
15:49 59 °F /  15 °C 44.1 °F /  6.7 °C 29.67in /  1004.6hPa NW 6.5mph /  10.5km/h 16mph /  25.7km/h 57.8% 0.00in /  0mm 118 W/m2
15:54 59 °F /  15 °C 44.2 °F /  6.8 °C 29.67in /  1004.6hPa NW 7.2mph /  11.6km/h 11mph /  17.7km/h 58% 0.00in /  0mm 121 W/m2
15:59 59.2 °F /  15.1 °C 44.8 °F /  7.1 °C 29.67in /  1004.6hPa NW 3.6mph /  5.8km/h 12mph /  19.3km/h 59% 0.00in /  0mm 246 W/m2
16:04 59.3 °F /  15.2 °C 44.6 °F /  7 °C 29.67in /  1004.6hPa NW 6.7mph /  10.8km/h 13mph /  20.9km/h 58.2% 0.00in /  0mm 246 W/m2
16:09 59.4 °F /  15.2 °C 44.6 °F /  7 °C 29.67in /  1004.6hPa WNW 5.4mph /  8.7km/h 13mph /  20.9km/h 58% 0.00in /  0mm 146 W/m2
16:14 59.2 °F /  15.1 °C 44.5 °F /  6.9 °C 29.67in /  1004.6hPa NW 7.2mph /  11.6km/h 14mph /  22.5km/h 58.2% 0.00in /  0mm 167 W/m2
16:19 59.2 °F /  15.1 °C 44.3 °F /  6.8 °C 29.67in /  1004.6hPa WNW 6.1mph /  9.8km/h 16mph /  25.7km/h 57.8% 0.00in /  0mm 163 W/m2
16:24 59.2 °F /  15.1 °C 44.6 °F /  7 °C 29.67in /  1004.6hPa NW 7mph /  11.3km/h 13mph /  20.9km/h 58.4% 0.00in /  0mm 167 W/m2
16:29 59.2 °F /  15.1 °C 44.8 °F /  7.1 °C 29.67in /  1004.6hPa NW 8.2mph /  13.2km/h 17mph /  27.4km/h 59% 0.00in /  0mm 134 W/m2
16:34 59 °F /  15 °C 44.7 °F /  7.1 °C 29.67in /  1004.6hPa WNW 8.2mph /  13.2km/h 11mph /  17.7km/h 59% 0.00in /  0mm 120 W/m2
16:39 58.6 °F /  14.8 °C 44.8 °F /  7.1 °C 29.67in /  1004.6hPa WNW 8.2mph /  13.2km/h 14mph /  22.5km/h 60% 0.00in /  0mm 137 W/m2
16:44 58.6 °F /  14.8 °C 45.3 °F /  7.4 °C 29.67in /  1004.6hPa NW 7.6mph /  12.2km/h 12mph /  19.3km/h 61% 0.00in /  0mm 135 W/m2
16:49 58.6 °F /  14.8 °C 45.5 °F /  7.5 °C 29.67in /  1004.6hPa WNW 5.2mph /  8.4km/h 12mph /  19.3km/h 61.6% 0.00in /  0mm 135 W/m2
16:54 58.6 °F /  14.8 °C 46.2 °F /  7.9 °C 29.67in /  1004.6hPa West 7.2mph /  11.6km/h 15mph /  24.1km/h 63.4% 0.00in /  0mm 156 W/m2
16:59 58.5 °F /  14.7 °C 46.7 °F /  8.2 °C 29.67in /  1004.6hPa WNW 5.6mph /  9km/h 12mph /  19.3km/h 64.8% 0.00in /  0mm 156 W/m2
17:04 58.4 °F /  14.7 °C 46.7 °F /  8.2 °C 29.67in /  1004.6hPa WNW 6.8mph /  10.9km/h 12mph /  19.3km/h 65% 0.00in /  0mm 169 W/m2
17:09 58.3 °F /  14.6 °C 46.7 °F /  8.2 °C 29.67in /  1004.6hPa WNW 7.8mph /  12.6km/h 15mph /  24.1km/h 65.4% 0.00in /  0mm 214 W/m2
17:14 58.3 °F /  14.6 °C 46.9 °F /  8.3 °C 29.67in /  1004.6hPa WNW 7.6mph /  12.2km/h 12mph /  19.3km/h 66% 0.00in /  0mm 163 W/m2
17:19 58.5 °F /  14.7 °C 47.3 °F /  8.5 °C 29.68in /  1005hPa WNW 7.8mph /  12.6km/h 14mph /  22.5km/h 66.4% 0.00in /  0mm 278 W/m2
17:24 58.5 °F /  14.7 °C 47.3 °F /  8.5 °C 29.68in /  1005hPa WNW 6.6mph /  10.6km/h 14mph /  22.5km/h 66.4% 0.00in /  0mm 139 W/m2
17:29 58.3 °F /  14.6 °C 47.3 °F /  8.5 °C 29.68in /  1005hPa WNW 5mph /  8km/h 12mph /  19.3km/h 67% 0.00in /  0mm 91 W/m2
17:34 58.1 °F /  14.5 °C 47.1 °F /  8.4 °C 29.68in /  1005hPa WNW 5mph /  8km/h 11mph /  17.7km/h 67% 0.00in /  0mm 88 W/m2
17:39 57.8 °F /  14.3 °C 47.3 °F /  8.5 °C 29.68in /  1005hPa WNW 8.2mph /  13.2km/h 16mph /  25.7km/h 67.8% 0.00in /  0mm 54 W/m2
17:44 57.5 °F /  14.2 °C 46.9 °F /  8.3 °C 29.69in /  1005.3hPa WNW 8.2mph /  13.2km/h 16mph /  25.7km/h 67.6% 0.00in /  0mm 37 W/m2
17:49 57.1 °F /  13.9 °C 46.7 °F /  8.2 °C 29.69in /  1005.3hPa WNW 9.6mph /  15.4km/h 16mph /  25.7km/h 68% 0.00in /  0mm 28 W/m2
17:54 57 °F /  13.9 °C 46.7 °F /  8.2 °C 29.69in /  1005.3hPa NW 8.2mph /  13.2km/h 15mph /  24.1km/h 68.4% 0.00in /  0mm 25 W/m2
17:59 56.8 °F /  13.8 °C 46.7 °F /  8.2 °C 29.68in /  1005hPa WNW 10.4mph /  16.7km/h 15mph /  24.1km/h 68.8% 0.00in /  0mm 19 W/m2
18:04 56.8 °F /  13.8 °C 46.8 °F /  8.2 °C 29.69in /  1005.3hPa NW 6.8mph /  10.9km/h 12mph /  19.3km/h 69% 0.00in /  0mm 14 W/m2
18:09 56.6 °F /  13.7 °C 46.8 °F /  8.2 °C 29.70in /  1005.6hPa WNW 9.4mph /  15.1km/h 17mph /  27.4km/h 69.8% 0.00in /  0mm 21 W/m2
18:14 55.8 °F /  13.2 °C 47.4 °F /  8.6 °C 29.70in /  1005.6hPa NW 7mph /  11.3km/h 16mph /  25.7km/h 73.2% 0.00in /  0mm 28 W/m2
18:19 55.3 °F /  12.9 °C 47.5 °F /  8.6 °C 29.70in /  1005.6hPa WNW 4.8mph /  7.7km/h 11mph /  17.7km/h 74.8% 0.00in /  0mm 25 W/m2
18:24 55.2 °F /  12.9 °C 47.6 °F /  8.7 °C 29.70in /  1005.6hPa NW 3.9mph /  6.3km/h 12mph /  19.3km/h 75.4% 0.00in /  0mm 21 W/m2
18:29 55.2 °F /  12.9 °C 47.5 °F /  8.6 °C 29.70in /  1005.6hPa NW 4.6mph /  7.4km/h 10mph /  16.1km/h 75% 0.00in /  0mm 14 W/m2
18:34 55.3 °F /  12.9 °C 47.7 °F /  8.7 °C 29.70in /  1005.6hPa NNW 5mph /  8km/h 10mph /  16.1km/h 75% 0.00in /  0mm 5 W/m2
18:39 55.4 °F /  13 °C 47.7 °F /  8.7 °C 29.70in /  1005.6hPa NW 4.8mph /  7.7km/h 9mph /  14.5km/h 75% 0.00in /  0mm 0 W/m2
18:44 54.5 °F /  12.5 °C 47.3 °F /  8.5 °C 29.71in /  1006hPa NW 8.6mph /  13.8km/h 15mph /  24.1km/h 76.4% 0.03in /  0.76mm 5 W/m2
18:49 52.9 °F /  11.6 °C 46.3 °F /  7.9 °C 29.70in /  1005.6hPa WNW 5.6mph /  9km/h 10mph /  16.1km/h 78% 0.04in /  1.02mm 7 W/m2
18:54 52.3 °F /  11.3 °C 46.1 °F /  7.8 °C 29.70in /  1005.6hPa WNW 2.7mph /  4.3km/h 7mph /  11.3km/h 79.2% 0.04in /  1.02mm 5 W/m2
18:59 52.1 °F /  11.2 °C 46.5 °F /  8.1 °C 29.70in /  1005.6hPa NW 1.5mph /  2.4km/h 5mph /  8km/h 81% 0.04in /  1.02mm 0 W/m2
19:04 51.8 °F /  11 °C 46.5 °F /  8.1 °C 29.71in /  1006hPa NW 1.3mph /  2.1km/h 3mph /  4.8km/h 82.4% 0.04in /  1.02mm 0 W/m2
19:09 51.6 °F /  10.9 °C 46.7 °F /  8.2 °C 29.71in /  1006hPa WNW 1mph /  1.6km/h 4mph /  6.4km/h 83.4% 0.04in /  1.02mm 0 W/m2
19:14 51.7 °F /  10.9 °C 47 °F /  8.3 °C 29.71in /  1006hPa WNW 3.1mph /  5km/h 8mph /  12.9km/h 84% 0.04in /  1.02mm 0 W/m2
19:19 52 °F /  11.1 °C 47.5 °F /  8.6 °C 29.71in /  1006hPa WNW 4.1mph /  6.6km/h 9mph /  14.5km/h 84.6% 0.04in /  1.02mm 0 W/m2
19:24 52.2 °F /  11.2 °C 47.6 °F /  8.7 °C 29.71in /  1006hPa WNW 4.9mph /  7.9km/h 8mph /  12.9km/h 84.2% 0.04in /  1.02mm 0 W/m2
19:29 52.3 °F /  11.3 °C 47.7 °F /  8.7 °C 29.71in /  1006hPa WNW 3.7mph /  6km/h 9mph /  14.5km/h 84% 0.04in /  1.02mm 0 W/m2
19:34 52.5 °F /  11.4 °C 47.6 °F /  8.7 °C 29.71in /  1006hPa NW 4.1mph /  6.6km/h 11mph /  17.7km/h 83.2% 0.04in /  1.02mm 0 W/m2
19:39 52.7 °F /  11.5 °C 47.7 °F /  8.7 °C 29.72in /  1006.3hPa WNW 3.5mph /  5.6km/h 8mph /  12.9km/h 83% 0.04in /  1.02mm 0 W/m2
19:44 52.9 °F /  11.6 °C 47.5 °F /  8.6 °C 29.72in /  1006.3hPa WNW 4.7mph /  7.6km/h 11mph /  17.7km/h 82% 0.03in /  0.76mm 0 W/m2
19:49 53 °F /  11.7 °C 47.6 °F /  8.7 °C 29.72in /  1006.3hPa WNW 4.3mph /  6.9km/h 11mph /  17.7km/h 82% 0.00in /  0mm 0 W/m2
19:54 53.1 °F /  11.7 °C 47.4 °F /  8.6 °C 29.72in /  1006.3hPa WNW 6.2mph /  10km/h 15mph /  24.1km/h 81.2% 0.00in /  0mm 0 W/m2
19:59 53.1 °F /  11.7 °C 47.3 °F /  8.5 °C 29.72in /  1006.3hPa WNW 4.6mph /  7.4km/h 11mph /  17.7km/h 80.8% 0.00in /  0mm 0 W/m2
20:04 53.2 °F /  11.8 °C 47.2 °F /  8.4 °C 29.72in /  1006.3hPa WNW 4.8mph /  7.7km/h 13mph /  20.9km/h 80% 0.00in /  0mm 0 W/m2
20:09 53.1 °F /  11.7 °C 47.1 °F /  8.4 °C 29.72in /  1006.3hPa WNW 5.6mph /  9km/h 9mph /  14.5km/h 80% 0.00in /  0mm 0 W/m2
20:14 53.1 °F /  11.7 °C 47.1 °F /  8.4 °C 29.72in /  1006.3hPa WNW 3.5mph /  5.6km/h 10mph /  16.1km/h 80% 0.00in /  0mm 0 W/m2
20:19 53.1 °F /  11.7 °C 47.2 °F /  8.4 °C 29.72in /  1006.3hPa WNW 4.2mph /  6.8km/h 11mph /  17.7km/h 80% 0.00in /  0mm 0 W/m2
20:24 53.2 °F /  11.8 °C 47.3 °F /  8.5 °C 29.73in /  1006.7hPa WNW 5.4mph /  8.7km/h 11mph /  17.7km/h 80% 0.00in /  0mm 0 W/m2
20:29 53 °F /  11.7 °C 47 °F /  8.3 °C 29.73in /  1006.7hPa NW 3mph /  4.8km/h 14mph /  22.5km/h 80% 0.00in /  0mm 0 W/m2
20:34 52.8 °F /  11.6 °C 47.2 °F /  8.4 °C 29.72in /  1006.3hPa NW 4.9mph /  7.9km/h 9mph /  14.5km/h 81% 0.00in /  0mm 0 W/m2
20:39 52.7 °F /  11.5 °C 47.1 °F /  8.4 °C 29.72in /  1006.3hPa WNW 4.6mph /  7.4km/h 11mph /  17.7km/h 81% 0.00in /  0mm 0 W/m2
20:44 52.9 °F /  11.6 °C 47.3 °F /  8.5 °C 29.73in /  1006.7hPa WNW 6.4mph /  10.3km/h 21mph /  33.8km/h 81% 0.00in /  0mm 0 W/m2
20:49 53.2 °F /  11.8 °C 47.5 °F /  8.6 °C 29.73in /  1006.7hPa WNW 4mph /  6.4km/h 14mph /  22.5km/h 81% 0.00in /  0mm 0 W/m2
20:54 53.2 °F /  11.8 °C 47.5 °F /  8.6 °C 29.73in /  1006.7hPa West 5.2mph /  8.4km/h 13mph /  20.9km/h 81% 0.00in /  0mm 0 W/m2
20:59 53.1 °F /  11.7 °C 47.3 °F /  8.5 °C 29.73in /  1006.7hPa WNW 6.6mph /  10.6km/h 10mph /  16.1km/h 80.8% 0.00in /  0mm 0 W/m2
21:04 53 °F /  11.7 °C 47.1 °F /  8.4 °C 29.73in /  1006.7hPa NW 5.4mph /  8.7km/h 8mph /  12.9km/h 80.6% 0.00in /  0mm 0 W/m2
21:09 52.7 °F /  11.5 °C 47.1 °F /  8.4 °C 29.73in /  1006.7hPa West 3.6mph /  5.8km/h 9mph /  14.5km/h 81% 0.00in /  0mm 0 W/m2
21:14 52.5 °F /  11.4 °C 46.9 °F /  8.3 °C 29.73in /  1006.7hPa WNW 2.6mph /  4.2km/h 7mph /  11.3km/h 81% 0.00in /  0mm 0 W/m2
21:19 52.3 °F /  11.3 °C 46.8 °F /  8.2 °C 29.72in /  1006.3hPa WNW 5mph /  8km/h 8mph /  12.9km/h 81% 0.00in /  0mm 0 W/m2
21:24 52.4 °F /  11.3 °C 46.8 °F /  8.2 °C 29.72in /  1006.3hPa WNW 5.6mph /  9km/h 10mph /  16.1km/h 81% 0.00in /  0mm 0 W/m2
21:29 52.5 °F /  11.4 °C 46.9 °F /  8.3 °C 29.72in /  1006.3hPa WNW 6mph /  9.7km/h 12mph /  19.3km/h 81% 0.00in /  0mm 0 W/m2
21:34 52.5 °F /  11.4 °C 46.9 °F /  8.3 °C 29.72in /  1006.3hPa WNW 5.4mph /  8.7km/h 12mph /  19.3km/h 81% 0.00in /  0mm 0 W/m2
21:39 52.7 °F /  11.5 °C 46.8 °F /  8.2 °C 29.72in /  1006.3hPa WNW 3.7mph /  6km/h 12mph /  19.3km/h 80% 0.00in /  0mm 0 W/m2
21:44 52.5 °F /  11.4 °C 46.6 °F /  8.1 °C 29.72in /  1006.3hPa WNW 5.9mph /  9.5km/h 10mph /  16.1km/h 80% 0.00in /  0mm 0 W/m2
21:48 52.7 °F /  11.5 °C 46.8 °F /  8.2 °C 29.72in /  1006.3hPa WNW 4.2mph /  6.8km/h 10mph /  16.1km/h 80% 0.00in /  0mm 0 W/m2
21:54 52.5 °F /  11.4 °C 46.6 °F /  8.1 °C 29.72in /  1006.3hPa WNW 3.8mph /  6.1km/h 8mph /  12.9km/h 80% 0.00in /  0mm 0 W/m2
21:59 52.5 °F /  11.4 °C 46.6 °F /  8.1 °C 29.72in /  1006.3hPa West 5.4mph /  8.7km/h 10mph /  16.1km/h 80% 0.00in /  0mm 0 W/m2
22:04 52.5 °F /  11.4 °C 46.6 °F /  8.1 °C 29.72in /  1006.3hPa WNW 4.8mph /  7.7km/h 10mph /  16.1km/h 80% 0.00in /  0mm 0 W/m2
22:09 52.3 °F /  11.3 °C 46.4 °F /  8 °C 29.72in /  1006.3hPa West 5.2mph /  8.4km/h 9mph /  14.5km/h 80% 0.00in /  0mm 0 W/m2
22:14 52.2 °F /  11.2 °C 46.4 °F /  8 °C 29.72in /  1006.3hPa West 2.8mph /  4.5km/h 7mph /  11.3km/h 80.2% 0.00in /  0mm 0 W/m2
22:19 52 °F /  11.1 °C 46.4 °F /  8 °C 29.72in /  1006.3hPa West 3.5mph /  5.6km/h 7mph /  11.3km/h 81% 0.00in /  0mm 0 W/m2
22:24 52 °F /  11.1 °C 46.4 °F /  8 °C 29.72in /  1006.3hPa West 3.3mph /  5.3km/h 7mph /  11.3km/h 81% 0.00in /  0mm 0 W/m2
22:29 51.8 °F /  11 °C 46.4 °F /  8 °C 29.72in /  1006.3hPa West 4.3mph /  6.9km/h 9mph /  14.5km/h 82% 0.00in /  0mm 0 W/m2
22:34 52 °F /  11.1 °C 46.6 °F /  8.1 °C 29.72in /  1006.3hPa WNW 3.6mph /  5.8km/h 9mph /  14.5km/h 82% 0.00in /  0mm 0 W/m2
22:39 51.9 °F /  11.1 °C 46.5 °F /  8.1 °C 29.72in /  1006.3hPa West 5.2mph /  8.4km/h 11mph /  17.7km/h 82% 0.00in /  0mm 0 W/m2
22:44 52 °F /  11.1 °C 46.8 °F /  8.2 °C 29.72in /  1006.3hPa West 4.2mph /  6.8km/h 10mph /  16.1km/h 82.8% 0.00in /  0mm 0 W/m2
22:49 51.8 °F /  11 °C 46.8 °F /  8.2 °C 29.72in /  1006.3hPa West 2.6mph /  4.2km/h 8mph /  12.9km/h 83% 0.00in /  0mm 0 W/m2
22:54 51.8 °F /  11 °C 46.8 °F /  8.2 °C 29.72in /  1006.3hPa West 3.1mph /  5km/h 8mph /  12.9km/h 83% 0.00in /  0mm 0 W/m2
22:59 51.8 °F /  11 °C 46.9 °F /  8.3 °C 29.72in /  1006.3hPa WNW 2.8mph /  4.5km/h 7mph /  11.3km/h 83.6% 0.00in /  0mm 0 W/m2
23:04 51.6 °F /  10.9 °C 46.9 °F /  8.3 °C 29.73in /  1006.7hPa West 2.8mph /  4.5km/h 4mph /  6.4km/h 84% 0.00in /  0mm 0 W/m2
23:09 51.6 °F /  10.9 °C 46.9 °F /  8.3 °C 29.73in /  1006.7hPa West 2.2mph /  3.5km/h 4mph /  6.4km/h 84% 0.00in /  0mm 0 W/m2
23:14 51.4 °F /  10.8 °C 46.9 °F /  8.3 °C 29.72in /  1006.3hPa West 2.6mph /  4.2km/h 5mph /  8km/h 84.4% 0.00in /  0mm 0 W/m2
23:19 51.4 °F /  10.8 °C 47.1 °F /  8.4 °C 29.72in /  1006.3hPa West 3.1mph /  5km/h 5mph /  8km/h 85% 0.00in /  0mm 0 W/m2
23:24 51.3 °F /  10.7 °C 46.9 °F /  8.3 °C 29.72in /  1006.3hPa West 1.7mph /  2.7km/h 6mph /  9.7km/h 85% 0.00in /  0mm 0 W/m2
23:29 51.3 °F /  10.7 °C 46.9 °F /  8.3 °C 29.72in /  1006.3hPa West 4.1mph /  6.6km/h 7mph /  11.3km/h 85% 0.00in /  0mm 0 W/m2
23:34 51.4 °F /  10.8 °C 47.1 °F /  8.4 °C 29.72in /  1006.3hPa WNW 3.7mph /  6km/h 11mph /  17.7km/h 85% 0.00in /  0mm 0 W/m2
23:39 51.4 °F /  10.8 °C 47.1 °F /  8.4 °C 29.72in /  1006.3hPa WNW 4.5mph /  7.2km/h 9mph /  14.5km/h 85% 0.00in /  0mm 0 W/m2
23:44 51.4 °F /  10.8 °C 47.1 °F /  8.4 °C 29.72in /  1006.3hPa West 4.1mph /  6.6km/h 7mph /  11.3km/h 85% 0.00in /  0mm 0 W/m2
23:49 51.4 °F /  10.8 °C 47.1 °F /  8.4 °C 29.72in /  1006.3hPa WNW 3.3mph /  5.3km/h 10mph /  16.1km/h 85% 0.00in /  0mm 0 W/m2
23:54 51.4 °F /  10.8 °C 47 °F /  8.3 °C 29.72in /  1006.3hPa WNW 4mph /  6.4km/h 10mph /  16.1km/h 85% 0.00in /  0mm 0 W/m2
23:59 51.3 °F /  10.7 °C 47 °F /  8.3 °C 29.72in /  1006.3hPa WNW 2.9mph /  4.7km/h 6mph /  9.7km/h 85% 0.00in /  0mm 0 W/m2
Bath Spa Weather
Compliments of Weather Underground - 2 mb